sensor_id;sensor_type;location;lat;lon;timestamp;pressure;altitude;pressure_sealevel;temperature;humidity
62632;BME280;48703;51.248;-0.546;2022-09-17T00:00:46;101588;;;7.08;74.63
62632;BME280;48703;51.248;-0.546;2022-09-17T00:03:48;101584;;;7.09;74.47
62632;BME280;48703;51.248;-0.546;2022-09-17T00:06:49;101587;;;6.97;74.74
62632;BME280;48703;51.248;-0.546;2022-09-17T00:09:51;101588;;;6.88;74.64
62632;BME280;48703;51.248;-0.546;2022-09-17T00:12:53;101586;;;6.90;75.23
62632;BME280;48703;51.248;-0.546;2022-09-17T00:15:55;101588;;;6.95;74.70
62632;BME280;48703;51.248;-0.546;2022-09-17T00:18:57;101586;;;6.92;74.39
62632;BME280;48703;51.248;-0.546;2022-09-17T00:21:58;101586;;;6.92;75.18
62632;BME280;48703;51.248;-0.546;2022-09-17T00:25:00;101592;;;6.85;75.12
62632;BME280;48703;51.248;-0.546;2022-09-17T00:28:02;101586;;;6.82;75.11
62632;BME280;48703;51.248;-0.546;2022-09-17T00:31:05;101579;;;6.82;75.10
62632;BME280;48703;51.248;-0.546;2022-09-17T00:34:06;101588;;;6.70;75.29
62632;BME280;48703;51.248;-0.546;2022-09-17T00:37:08;101586;;;6.68;75.00
62632;BME280;48703;51.248;-0.546;2022-09-17T00:40:09;101578;;;6.70;75.23
62632;BME280;48703;51.248;-0.546;2022-09-17T00:43:11;101575;;;6.67;75.55
62632;BME280;48703;51.248;-0.546;2022-09-17T00:46:19;101585;;;6.56;75.45
62632;BME280;48703;51.248;-0.546;2022-09-17T00:49:16;101587;;;6.56;75.26
62632;BME280;48703;51.248;-0.546;2022-09-17T00:52:18;101577;;;6.59;75.67
62632;BME280;48703;51.248;-0.546;2022-09-17T00:55:20;101574;;;6.59;75.20
62632;BME280;48703;51.248;-0.546;2022-09-17T00:58:21;101577;;;6.55;75.48
62632;BME280;48703;51.248;-0.546;2022-09-17T01:01:22;101568;;;6.53;75.55
62632;BME280;48703;51.248;-0.546;2022-09-17T01:04:25;101573;;;6.46;75.69
62632;BME280;48703;51.248;-0.546;2022-09-17T01:07:32;101580;;;6.44;76.25
62632;BME280;48703;51.248;-0.546;2022-09-17T01:10:33;101571;;;6.45;75.76
62632;BME280;48703;51.248;-0.546;2022-09-17T01:12:39;101571;;;6.43;75.72
62632;BME280;48703;51.248;-0.546;2022-09-17T01:15:33;101579;;;6.43;76.53
62632;BME280;48703;51.248;-0.546;2022-09-17T01:18:40;101579;;;6.41;76.31
62632;BME280;48703;51.248;-0.546;2022-09-17T01:21:41;101571;;;6.41;75.95
62632;BME280;48703;51.248;-0.546;2022-09-17T01:24:45;101575;;;6.37;75.88
62632;BME280;48703;51.248;-0.546;2022-09-17T01:28:43;101577;;;6.31;76.91
62632;BME280;48703;51.248;-0.546;2022-09-17T01:31:41;101590;;;6.28;76.38
62632;BME280;48703;51.248;-0.546;2022-09-17T01:34:43;101587;;;6.31;76.12
62632;BME280;48703;51.248;-0.546;2022-09-17T01:37:47;101585;;;6.27;76.57
62632;BME280;48703;51.248;-0.546;2022-09-17T01:40:48;101587;;;6.26;76.39
62632;BME280;48703;51.248;-0.546;2022-09-17T01:43:50;101588;;;6.25;76.35
62632;BME280;48703;51.248;-0.546;2022-09-17T01:46:52;101588;;;6.26;76.47
62632;BME280;48703;51.248;-0.546;2022-09-17T01:49:54;101583;;;6.24;76.15
62632;BME280;48703;51.248;-0.546;2022-09-17T01:52:54;101586;;;6.19;76.30
62632;BME280;48703;51.248;-0.546;2022-09-17T01:55:56;101589;;;6.17;76.32
62632;BME280;48703;51.248;-0.546;2022-09-17T01:59:00;101592;;;6.19;76.93
62632;BME280;48703;51.248;-0.546;2022-09-17T02:02:01;101595;;;6.21;76.56
62632;BME280;48703;51.248;-0.546;2022-09-17T02:05:09;101594;;;6.17;76.05
62632;BME280;48703;51.248;-0.546;2022-09-17T02:08:04;101592;;;6.15;76.18
62632;BME280;48703;51.248;-0.546;2022-09-17T02:11:06;101596;;;6.11;76.48
62632;BME280;48703;51.248;-0.546;2022-09-17T02:14:08;101601;;;6.10;76.49
62632;BME280;48703;51.248;-0.546;2022-09-17T02:17:09;101599;;;6.11;76.36
62632;BME280;48703;51.248;-0.546;2022-09-17T02:20:11;101606;;;6.12;76.59
62632;BME280;48703;51.248;-0.546;2022-09-17T02:23:13;101608;;;6.12;76.82
62632;BME280;48703;51.248;-0.546;2022-09-17T02:26:15;101610;;;6.09;76.72
62632;BME280;48703;51.248;-0.546;2022-09-17T02:29:18;101609;;;6.06;76.78
62632;BME280;48703;51.248;-0.546;2022-09-17T02:32:18;101603;;;6.04;76.62
62632;BME280;48703;51.248;-0.546;2022-09-17T02:35:20;101598;;;6.01;76.59
62632;BME280;48703;51.248;-0.546;2022-09-17T02:38:23;101602;;;6.02;76.26
62632;BME280;48703;51.248;-0.546;2022-09-17T02:41:24;101601;;;6.01;76.56
62632;BME280;48703;51.248;-0.546;2022-09-17T02:44:28;101599;;;5.99;76.47
62632;BME280;48703;51.248;-0.546;2022-09-17T02:47:32;101605;;;6.01;76.61
62632;BME280;48703;51.248;-0.546;2022-09-17T02:50:33;101610;;;5.97;76.88
62632;BME280;48703;51.248;-0.546;2022-09-17T02:53:34;101610;;;5.98;76.58
62632;BME280;48703;51.248;-0.546;2022-09-17T02:56:36;101612;;;5.93;76.31
62632;BME280;48703;51.248;-0.546;2022-09-17T02:59:36;101611;;;5.88;76.73
62632;BME280;48703;51.248;-0.546;2022-09-17T03:02:37;101610;;;5.88;76.24
62632;BME280;48703;51.248;-0.546;2022-09-17T03:05:39;101610;;;5.86;76.47
62632;BME280;48703;51.248;-0.546;2022-09-17T03:08:41;101614;;;5.83;76.73
62632;BME280;48703;51.248;-0.546;2022-09-17T03:11:42;101610;;;5.83;76.04
62632;BME280;48703;51.248;-0.546;2022-09-17T03:14:44;101612;;;5.83;76.86
62632;BME280;48703;51.248;-0.546;2022-09-17T03:17:46;101612;;;5.81;76.21
62632;BME280;48703;51.248;-0.546;2022-09-17T03:20:48;101612;;;5.82;76.77
62632;BME280;48703;51.248;-0.546;2022-09-17T03:23:50;101613;;;5.76;76.66
62632;BME280;48703;51.248;-0.546;2022-09-17T03:26:52;101612;;;5.77;76.82
62632;BME280;48703;51.248;-0.546;2022-09-17T03:29:53;101610;;;5.77;77.12
62632;BME280;48703;51.248;-0.546;2022-09-17T03:32:55;101607;;;5.78;76.85
62632;BME280;48703;51.248;-0.546;2022-09-17T03:35:57;101605;;;5.76;76.90
62632;BME280;48703;51.248;-0.546;2022-09-17T03:38:59;101605;;;5.73;76.73
62632;BME280;48703;51.248;-0.546;2022-09-17T03:42:01;101603;;;5.70;76.29
62632;BME280;48703;51.248;-0.546;2022-09-17T03:45:03;101602;;;5.67;76.78
62632;BME280;48703;51.248;-0.546;2022-09-17T03:48:05;101605;;;5.64;77.08
62632;BME280;48703;51.248;-0.546;2022-09-17T03:51:07;101604;;;5.60;77.45
62632;BME280;48703;51.248;-0.546;2022-09-17T03:54:08;101607;;;5.59;77.29
62632;BME280;48703;51.248;-0.546;2022-09-17T03:57:10;101610;;;5.57;77.49
62632;BME280;48703;51.248;-0.546;2022-09-17T04:00:13;101604;;;5.52;77.79
62632;BME280;48703;51.248;-0.546;2022-09-17T04:03:14;101603;;;5.51;77.57
62632;BME280;48703;51.248;-0.546;2022-09-17T04:06:16;101604;;;5.48;77.62
62632;BME280;48703;51.248;-0.546;2022-09-17T04:09:18;101611;;;5.46;78.01
62632;BME280;48703;51.248;-0.546;2022-09-17T04:12:20;101609;;;5.44;78.05
62632;BME280;48703;51.248;-0.546;2022-09-17T04:15:21;101604;;;5.45;77.99
62632;BME280;48703;51.248;-0.546;2022-09-17T04:18:23;101603;;;5.48;78.09
62632;BME280;48703;51.248;-0.546;2022-09-17T04:21:25;101602;;;5.46;77.85
62632;BME280;48703;51.248;-0.546;2022-09-17T04:24:27;101601;;;5.45;77.94
62632;BME280;48703;51.248;-0.546;2022-09-17T04:27:29;101603;;;5.39;78.14
62632;BME280;48703;51.248;-0.546;2022-09-17T04:30:31;101603;;;5.35;78.18
62632;BME280;48703;51.248;-0.546;2022-09-17T04:33:33;101603;;;5.37;77.95
62632;BME280;48703;51.248;-0.546;2022-09-17T04:36:34;101603;;;5.36;77.89
62632;BME280;48703;51.248;-0.546;2022-09-17T04:39:36;101603;;;5.35;78.64
62632;BME280;48703;51.248;-0.546;2022-09-17T04:42:38;101604;;;5.32;78.51
62632;BME280;48703;51.248;-0.546;2022-09-17T04:45:40;101601;;;5.30;78.42
62632;BME280;48703;51.248;-0.546;2022-09-17T04:48:42;101603;;;5.25;78.80
62632;BME280;48703;51.248;-0.546;2022-09-17T04:51:44;101604;;;5.19;79.12
62632;BME280;48703;51.248;-0.546;2022-09-17T04:54:45;101602;;;5.19;78.62
62632;BME280;48703;51.248;-0.546;2022-09-17T04:57:48;101603;;;5.19;78.83
62632;BME280;48703;51.248;-0.546;2022-09-17T05:00:49;101608;;;5.18;78.68
62632;BME280;48703;51.248;-0.546;2022-09-17T05:03:51;101615;;;5.18;78.89
62632;BME280;48703;51.248;-0.546;2022-09-17T05:06:53;101617;;;5.19;79.17
62632;BME280;48703;51.248;-0.546;2022-09-17T05:09:55;101617;;;5.20;79.23
62632;BME280;48703;51.248;-0.546;2022-09-17T05:12:57;101618;;;5.15;78.91
62632;BME280;48703;51.248;-0.546;2022-09-17T05:15:59;101615;;;5.16;79.31
62632;BME280;48703;51.248;-0.546;2022-09-17T05:19:00;101611;;;5.14;78.63
62632;BME280;48703;51.248;-0.546;2022-09-17T05:22:02;101612;;;5.13;78.81
62632;BME280;48703;51.248;-0.546;2022-09-17T05:25:05;101611;;;5.12;79.50
62632;BME280;48703;51.248;-0.546;2022-09-17T05:28:06;101611;;;5.14;79.36
62632;BME280;48703;51.248;-0.546;2022-09-17T05:31:08;101616;;;5.13;79.65
62632;BME280;48703;51.248;-0.546;2022-09-17T05:34:10;101622;;;5.12;79.33
62632;BME280;48703;51.248;-0.546;2022-09-17T05:37:12;101622;;;5.09;79.63
62632;BME280;48703;51.248;-0.546;2022-09-17T05:40:13;101622;;;5.04;80.04
62632;BME280;48703;51.248;-0.546;2022-09-17T05:43:15;101624;;;5.06;79.97
62632;BME280;48703;51.248;-0.546;2022-09-17T05:46:17;101625;;;5.09;79.80
62632;BME280;48703;51.248;-0.546;2022-09-17T05:49:19;101628;;;5.07;79.70
62632;BME280;48703;51.248;-0.546;2022-09-17T05:52:21;101629;;;5.06;79.22
62632;BME280;48703;51.248;-0.546;2022-09-17T05:55:23;101629;;;5.08;79.80
62632;BME280;48703;51.248;-0.546;2022-09-17T05:58:25;101635;;;5.07;80.05
62632;BME280;48703;51.248;-0.546;2022-09-17T06:01:26;101642;;;5.03;80.11
62632;BME280;48703;51.248;-0.546;2022-09-17T06:04:28;101642;;;5.03;80.23
62632;BME280;48703;51.248;-0.546;2022-09-17T06:07:30;101651;;;5.01;80.65
62632;BME280;48703;51.248;-0.546;2022-09-17T06:10:34;101652;;;5.00;79.84
62632;BME280;48703;51.248;-0.546;2022-09-17T06:13:34;101660;;;4.94;80.94
62632;BME280;48703;51.248;-0.546;2022-09-17T06:16:36;101658;;;4.96;80.96
62632;BME280;48703;51.248;-0.546;2022-09-17T06:19:38;101659;;;5.01;80.64
62632;BME280;48703;51.248;-0.546;2022-09-17T06:22:39;101663;;;5.06;81.21
62632;BME280;48703;51.248;-0.546;2022-09-17T06:25:41;101663;;;5.06;81.04
62632;BME280;48703;51.248;-0.546;2022-09-17T06:28:43;101665;;;5.03;81.27
62632;BME280;48703;51.248;-0.546;2022-09-17T06:31:46;101668;;;5.08;81.14
62632;BME280;48703;51.248;-0.546;2022-09-17T06:34:47;101670;;;5.14;80.54
62632;BME280;48703;51.248;-0.546;2022-09-17T06:37:49;101669;;;5.18;79.92
62632;BME280;48703;51.248;-0.546;2022-09-17T06:40:51;101674;;;5.22;80.46
62632;BME280;48703;51.248;-0.546;2022-09-17T06:43:52;101674;;;5.26;80.41
62632;BME280;48703;51.248;-0.546;2022-09-17T06:46:54;101671;;;5.33;80.23
62632;BME280;48703;51.248;-0.546;2022-09-17T06:49:56;101669;;;5.35;80.19
62632;BME280;48703;51.248;-0.546;2022-09-17T06:52:58;101668;;;5.39;80.41
62632;BME280;48703;51.248;-0.546;2022-09-17T06:56:00;101668;;;5.44;80.12
62632;BME280;48703;51.248;-0.546;2022-09-17T06:59:02;101667;;;5.50;79.85
62632;BME280;48703;51.248;-0.546;2022-09-17T07:02:04;101661;;;5.56;79.42
62632;BME280;48703;51.248;-0.546;2022-09-17T07:05:06;101654;;;5.60;79.67
62632;BME280;48703;51.248;-0.546;2022-09-17T07:08:07;101654;;;5.65;79.71
62632;BME280;48703;51.248;-0.546;2022-09-17T07:11:09;101652;;;5.72;79.62
62632;BME280;48703;51.248;-0.546;2022-09-17T07:14:11;101652;;;5.78;79.82
62632;BME280;48703;51.248;-0.546;2022-09-17T07:17:13;101656;;;5.84;80.02
62632;BME280;48703;51.248;-0.546;2022-09-17T07:20:15;101656;;;5.89;79.57
62632;BME280;48703;51.248;-0.546;2022-09-17T07:23:17;101655;;;5.95;79.72
62632;BME280;48703;51.248;-0.546;2022-09-17T07:26:18;101661;;;6.03;79.77
62632;BME280;48703;51.248;-0.546;2022-09-17T07:29:20;101665;;;6.09;79.88
62632;BME280;48703;51.248;-0.546;2022-09-17T07:32:22;101661;;;6.17;79.92
62632;BME280;48703;51.248;-0.546;2022-09-17T07:35:24;101657;;;6.24;78.90
62632;BME280;48703;51.248;-0.546;2022-09-17T07:38:26;101656;;;6.30;79.22
62632;BME280;48703;51.248;-0.546;2022-09-17T07:41:28;101657;;;6.37;79.33
62632;BME280;48703;51.248;-0.546;2022-09-17T07:44:30;101655;;;6.45;79.04
62632;BME280;48703;51.248;-0.546;2022-09-17T07:47:33;101651;;;6.53;79.15
62632;BME280;48703;51.248;-0.546;2022-09-17T07:50:33;101647;;;6.61;78.39
62632;BME280;48703;51.248;-0.546;2022-09-17T07:53:35;101650;;;6.71;78.37
62632;BME280;48703;51.248;-0.546;2022-09-17T07:56:37;101649;;;6.76;78.12
62632;BME280;48703;51.248;-0.546;2022-09-17T07:59:39;101644;;;6.83;78.54
62632;BME280;48703;51.248;-0.546;2022-09-17T08:02:41;101642;;;6.92;78.09
62632;BME280;48703;51.248;-0.546;2022-09-17T08:05:43;101640;;;7.03;78.10
62632;BME280;48703;51.248;-0.546;2022-09-17T08:08:45;101640;;;7.15;77.80
62632;BME280;48703;51.248;-0.546;2022-09-17T08:11:46;101642;;;7.22;77.61
62632;BME280;48703;51.248;-0.546;2022-09-17T08:14:48;101648;;;7.31;77.22
62632;BME280;48703;51.248;-0.546;2022-09-17T08:17:50;101652;;;7.39;76.99
62632;BME280;48703;51.248;-0.546;2022-09-17T08:20:55;101652;;;7.46;77.09
62632;BME280;48703;51.248;-0.546;2022-09-17T08:23:54;101652;;;7.55;76.87
62632;BME280;48703;51.248;-0.546;2022-09-17T08:26:56;101655;;;7.63;77.13
62632;BME280;48703;51.248;-0.546;2022-09-17T08:29:58;101654;;;7.72;76.63
62632;BME280;48703;51.248;-0.546;2022-09-17T08:32:59;101652;;;7.79;76.27
62632;BME280;48703;51.248;-0.546;2022-09-17T08:36:02;101656;;;7.88;76.36
62632;BME280;48703;51.248;-0.546;2022-09-17T08:39:03;101659;;;7.93;75.93
62632;BME280;48703;51.248;-0.546;2022-09-17T08:42:07;101660;;;8.03;75.47
62632;BME280;48703;51.248;-0.546;2022-09-17T08:45:08;101657;;;8.09;74.82
62632;BME280;48703;51.248;-0.546;2022-09-17T08:48:09;101659;;;8.16;74.63
62632;BME280;48703;51.248;-0.546;2022-09-17T08:51:14;101663;;;8.26;75.04
62632;BME280;48703;51.248;-0.546;2022-09-17T08:54:13;101666;;;8.35;74.67
62632;BME280;48703;51.248;-0.546;2022-09-17T08:57:16;101665;;;8.44;74.16
62632;BME280;48703;51.248;-0.546;2022-09-17T09:00:17;101664;;;8.57;71.28
62632;BME280;48703;51.248;-0.546;2022-09-17T09:03:20;101667;;;8.72;70.04
62632;BME280;48703;51.248;-0.546;2022-09-17T09:06:20;101667;;;8.82;69.80
62632;BME280;48703;51.248;-0.546;2022-09-17T09:09:22;101671;;;8.90;70.03
62632;BME280;48703;51.248;-0.546;2022-09-17T09:12:24;101674;;;9.00;69.98
62632;BME280;48703;51.248;-0.546;2022-09-17T09:15:30;101672;;;9.07;70.36
62632;BME280;48703;51.248;-0.546;2022-09-17T09:18:28;101674;;;9.15;68.75
62632;BME280;48703;51.248;-0.546;2022-09-17T09:21:32;101673;;;9.31;68.25
62632;BME280;48703;51.248;-0.546;2022-09-17T09:24:34;101675;;;9.38;68.80
62632;BME280;48703;51.248;-0.546;2022-09-17T09:27:35;101672;;;9.51;67.87
62632;BME280;48703;51.248;-0.546;2022-09-17T09:30:38;101671;;;9.63;67.06
62632;BME280;48703;51.248;-0.546;2022-09-17T09:33:38;101670;;;9.76;65.07
62632;BME280;48703;51.248;-0.546;2022-09-17T09:36:38;101667;;;9.83;64.28
62632;BME280;48703;51.248;-0.546;2022-09-17T09:39:40;101668;;;9.92;65.13
62632;BME280;48703;51.248;-0.546;2022-09-17T09:42:42;101670;;;10.04;65.85
62632;BME280;48703;51.248;-0.546;2022-09-17T09:45:48;101667;;;10.12;64.80
62632;BME280;48703;51.248;-0.546;2022-09-17T09:48:49;101666;;;10.22;63.82
62632;BME280;48703;51.248;-0.546;2022-09-17T09:51:50;101668;;;10.31;64.40
62632;BME280;48703;51.248;-0.546;2022-09-17T09:54:57;101670;;;10.39;65.52
62632;BME280;48703;51.248;-0.546;2022-09-17T09:57:52;101668;;;10.46;62.74
62632;BME280;48703;51.248;-0.546;2022-09-17T10:00:53;101667;;;10.58;61.40
62632;BME280;48703;51.248;-0.546;2022-09-17T10:03:55;101671;;;10.73;61.52
62632;BME280;48703;51.248;-0.546;2022-09-17T10:06:59;101674;;;10.80;60.65
62632;BME280;48703;51.248;-0.546;2022-09-17T10:10:06;101673;;;10.82;59.99
62632;BME280;48703;51.248;-0.546;2022-09-17T10:13:05;101666;;;10.86;59.27
62632;BME280;48703;51.248;-0.546;2022-09-17T10:16:19;101667;;;10.87;60.89
62632;BME280;48703;51.248;-0.546;2022-09-17T10:19:10;101663;;;10.96;58.29
62632;BME280;48703;51.248;-0.546;2022-09-17T10:22:23;101667;;;10.97;58.90
62632;BME280;48703;51.248;-0.546;2022-09-17T10:25:19;101663;;;11.03;59.64
62632;BME280;48703;51.248;-0.546;2022-09-17T10:28:20;101664;;;11.14;58.09
62632;BME280;48703;51.248;-0.546;2022-09-17T10:31:12;101661;;;11.27;57.41
62632;BME280;48703;51.248;-0.546;2022-09-17T10:33:25;101658;;;11.31;58.82
62632;BME280;48703;51.248;-0.546;2022-09-17T10:36:15;101654;;;11.38;58.71
62632;BME280;48703;51.248;-0.546;2022-09-17T10:39:18;101654;;;11.39;59.15
62632;BME280;48703;51.248;-0.546;2022-09-17T10:42:19;101650;;;11.48;56.80
62632;BME280;48703;51.248;-0.546;2022-09-17T10:45:22;101655;;;11.58;56.34
62632;BME280;48703;51.248;-0.546;2022-09-17T10:48:22;101659;;;11.68;55.90
62632;BME280;48703;51.248;-0.546;2022-09-17T10:51:24;101656;;;11.74;55.65
62632;BME280;48703;51.248;-0.546;2022-09-17T10:54:32;101650;;;11.81;55.04
62632;BME280;48703;51.248;-0.546;2022-09-17T10:57:30;101651;;;11.86;55.25
62632;BME280;48703;51.248;-0.546;2022-09-17T11:00:33;101653;;;11.91;56.96
62632;BME280;48703;51.248;-0.546;2022-09-17T11:03:52;101649;;;11.95;56.47
62632;BME280;48703;51.248;-0.546;2022-09-17T11:06:38;101646;;;12.01;55.97
62632;BME280;48703;51.248;-0.546;2022-09-17T11:09:38;101640;;;12.05;55.46
62632;BME280;48703;51.248;-0.546;2022-09-17T11:12:39;101642;;;12.07;55.68
62632;BME280;48703;51.248;-0.546;2022-09-17T11:15:43;101643;;;12.07;55.91
62632;BME280;48703;51.248;-0.546;2022-09-17T11:18:41;101643;;;12.11;55.93
62632;BME280;48703;51.248;-0.546;2022-09-17T11:21:44;101637;;;12.18;55.12
62632;BME280;48703;51.248;-0.546;2022-09-17T11:24:47;101635;;;12.31;55.35
62632;BME280;48703;51.248;-0.546;2022-09-17T11:27:51;101633;;;12.37;55.62
62632;BME280;48703;51.248;-0.546;2022-09-17T11:30:52;101623;;;12.41;55.66
62632;BME280;48703;51.248;-0.546;2022-09-17T11:33:54;101622;;;12.46;55.87
62632;BME280;48703;51.248;-0.546;2022-09-17T11:36:53;101622;;;12.47;54.55
62632;BME280;48703;51.248;-0.546;2022-09-17T11:39:55;101627;;;12.47;56.02
62632;BME280;48703;51.248;-0.546;2022-09-17T11:42:57;101625;;;12.51;55.21
62632;BME280;48703;51.248;-0.546;2022-09-17T11:45:59;101620;;;12.57;56.01
62632;BME280;48703;51.248;-0.546;2022-09-17T11:49:01;101616;;;12.65;55.26
62632;BME280;48703;51.248;-0.546;2022-09-17T11:52:03;101610;;;12.71;55.88
62632;BME280;48703;51.248;-0.546;2022-09-17T11:55:05;101601;;;12.74;53.96
62632;BME280;48703;51.248;-0.546;2022-09-17T11:58:08;101598;;;12.73;55.63
62632;BME280;48703;51.248;-0.546;2022-09-17T12:01:08;101591;;;12.78;56.25
62632;BME280;48703;51.248;-0.546;2022-09-17T12:04:15;101593;;;12.84;54.57
62632;BME280;48703;51.248;-0.546;2022-09-17T12:07:18;101607;;;12.92;53.57
62632;BME280;48703;51.248;-0.546;2022-09-17T12:10:33;101604;;;12.96;52.89
62632;BME280;48703;51.248;-0.546;2022-09-17T12:13:17;101598;;;13.02;52.50
62632;BME280;48703;51.248;-0.546;2022-09-17T12:16:18;101589;;;13.08;52.33
62632;BME280;48703;51.248;-0.546;2022-09-17T12:19:20;101584;;;13.15;52.17
62632;BME280;48703;51.248;-0.546;2022-09-17T12:22:20;101591;;;13.24;52.43
62632;BME280;48703;51.248;-0.546;2022-09-17T12:25:22;101587;;;13.24;51.45
62632;BME280;48703;51.248;-0.546;2022-09-17T12:28:25;101586;;;13.23;51.81
62632;BME280;48703;51.248;-0.546;2022-09-17T12:31:27;101586;;;13.25;51.69
62632;BME280;48703;51.248;-0.546;2022-09-17T12:34:30;101584;;;13.31;51.35
62632;BME280;48703;51.248;-0.546;2022-09-17T12:37:31;101589;;;13.30;50.68
62632;BME280;48703;51.248;-0.546;2022-09-17T12:40:31;101583;;;13.32;51.11
62632;BME280;48703;51.248;-0.546;2022-09-17T12:43:38;101589;;;13.35;51.73
62632;BME280;48703;51.248;-0.546;2022-09-17T12:46:39;101591;;;13.47;50.44
62632;BME280;48703;51.248;-0.546;2022-09-17T12:49:40;101581;;;13.50;50.37
62632;BME280;48703;51.248;-0.546;2022-09-17T12:52:42;101582;;;13.53;50.24
62632;BME280;48703;51.248;-0.546;2022-09-17T12:55:43;101571;;;13.57;49.12
62632;BME280;48703;51.248;-0.546;2022-09-17T12:58:47;101573;;;13.65;50.89
62632;BME280;48703;51.248;-0.546;2022-09-17T13:01:46;101575;;;13.71;49.70
62632;BME280;48703;51.248;-0.546;2022-09-17T13:04:53;101569;;;13.75;48.05
62632;BME280;48703;51.248;-0.546;2022-09-17T13:08:25;101571;;;13.76;48.79
62632;BME280;48703;51.248;-0.546;2022-09-17T13:11:12;101573;;;13.81;46.96
62632;BME280;48703;51.248;-0.546;2022-09-17T13:13:53;101571;;;13.86;47.81
62632;BME280;48703;51.248;-0.546;2022-09-17T13:16:55;101570;;;13.87;47.14
62632;BME280;48703;51.248;-0.546;2022-09-17T13:19:57;101568;;;13.90;48.30
62632;BME280;48703;51.248;-0.546;2022-09-17T13:22:57;101565;;;13.91;47.15
62632;BME280;48703;51.248;-0.546;2022-09-17T13:25:59;101568;;;13.94;47.34
62632;BME280;48703;51.248;-0.546;2022-09-17T13:29:01;101563;;;13.98;47.94
62632;BME280;48703;51.248;-0.546;2022-09-17T13:32:03;101562;;;14.08;47.70
62632;BME280;48703;51.248;-0.546;2022-09-17T13:35:44;101566;;;14.17;47.09
62632;BME280;48703;51.248;-0.546;2022-09-17T13:38:06;101560;;;14.21;45.78
62632;BME280;48703;51.248;-0.546;2022-09-17T13:41:16;101555;;;14.21;45.69
62632;BME280;48703;51.248;-0.546;2022-09-17T13:44:10;101551;;;14.24;45.81
62632;BME280;48703;51.248;-0.546;2022-09-17T13:47:15;101545;;;14.28;46.00
62632;BME280;48703;51.248;-0.546;2022-09-17T13:50:24;101549;;;14.33;47.58
62632;BME280;48703;51.248;-0.546;2022-09-17T13:53:16;101546;;;14.37;46.01
62632;BME280;48703;51.248;-0.546;2022-09-17T13:56:27;101544;;;14.38;45.72
62632;BME280;48703;51.248;-0.546;2022-09-17T13:59:22;101542;;;14.38;46.43
62632;BME280;48703;51.248;-0.546;2022-09-17T14:02:27;101544;;;14.39;47.26
62632;BME280;48703;51.248;-0.546;2022-09-17T14:05:28;101543;;;14.44;45.26
62632;BME280;48703;51.248;-0.546;2022-09-17T14:08:27;101539;;;14.50;45.48
62632;BME280;48703;51.248;-0.546;2022-09-17T14:11:35;101536;;;14.56;45.11
62632;BME280;48703;51.248;-0.546;2022-09-17T14:14:46;101532;;;14.65;46.93
62632;BME280;48703;51.248;-0.546;2022-09-17T14:18:31;101529;;;14.75;46.75
62632;BME280;48703;51.248;-0.546;2022-09-17T14:20:33;101531;;;14.79;46.65
62632;BME280;48703;51.248;-0.546;2022-09-17T14:23:41;101530;;;14.82;45.43
62632;BME280;48703;51.248;-0.546;2022-09-17T14:26:40;101529;;;14.87;44.99
62632;BME280;48703;51.248;-0.546;2022-09-17T14:29:44;101530;;;14.92;44.33
62632;BME280;48703;51.248;-0.546;2022-09-17T14:32:41;101539;;;14.98;43.25
62632;BME280;48703;51.248;-0.546;2022-09-17T14:35:42;101536;;;15.03;42.23
62632;BME280;48703;51.248;-0.546;2022-09-17T14:38:44;101533;;;15.03;43.70
62632;BME280;48703;51.248;-0.546;2022-09-17T14:41:45;101527;;;15.07;43.88
62632;BME280;48703;51.248;-0.546;2022-09-17T14:44:49;101527;;;15.10;43.27
62632;BME280;48703;51.248;-0.546;2022-09-17T14:47:54;101528;;;15.14;44.32
62632;BME280;48703;51.248;-0.546;2022-09-17T14:50:51;101525;;;15.22;43.23
62632;BME280;48703;51.248;-0.546;2022-09-17T14:54:13;101521;;;15.29;44.91
62632;BME280;48703;51.248;-0.546;2022-09-17T14:56:56;101526;;;15.39;43.18
62632;BME280;48703;51.248;-0.546;2022-09-17T14:59:57;101521;;;15.45;42.80
62632;BME280;48703;51.248;-0.546;2022-09-17T15:02:59;101522;;;15.54;42.54
62632;BME280;48703;51.248;-0.546;2022-09-17T15:06:00;101521;;;15.59;42.12
62632;BME280;48703;51.248;-0.546;2022-09-17T15:09:02;101524;;;15.62;41.68
62632;BME280;48703;51.248;-0.546;2022-09-17T15:12:04;101518;;;15.64;41.60
62632;BME280;48703;51.248;-0.546;2022-09-17T15:15:09;101515;;;15.68;42.21
62632;BME280;48703;51.248;-0.546;2022-09-17T15:18:11;101518;;;15.76;42.36
62632;BME280;48703;51.248;-0.546;2022-09-17T15:21:14;101516;;;15.82;41.82
62632;BME280;48703;51.248;-0.546;2022-09-17T15:24:12;101513;;;15.88;42.62
62632;BME280;48703;51.248;-0.546;2022-09-17T15:27:14;101510;;;15.96;43.08
62632;BME280;48703;51.248;-0.546;2022-09-17T15:30:16;101503;;;16.01;41.12
62632;BME280;48703;51.248;-0.546;2022-09-17T15:33:17;101500;;;16.03;42.19
62632;BME280;48703;51.248;-0.546;2022-09-17T15:36:20;101504;;;16.11;42.57
62632;BME280;48703;51.248;-0.546;2022-09-17T15:39:29;101506;;;16.08;40.33
62632;BME280;48703;51.248;-0.546;2022-09-17T15:42:24;101507;;;16.04;41.91
62632;BME280;48703;51.248;-0.546;2022-09-17T15:45:25;101510;;;16.01;41.06
62632;BME280;48703;51.248;-0.546;2022-09-17T15:48:33;101508;;;15.96;41.96
62632;BME280;48703;51.248;-0.546;2022-09-17T15:51:29;101502;;;15.98;43.13
62632;BME280;48703;51.248;-0.546;2022-09-17T15:54:31;101499;;;15.97;41.54
62632;BME280;48703;51.248;-0.546;2022-09-17T15:57:32;101500;;;16.03;42.55
62632;BME280;48703;51.248;-0.546;2022-09-17T16:00:34;101497;;;16.07;41.61
62632;BME280;48703;51.248;-0.546;2022-09-17T16:04:00;101494;;;16.09;41.20
62632;BME280;48703;51.248;-0.546;2022-09-17T16:06:38;101491;;;16.09;41.49
62632;BME280;48703;51.248;-0.546;2022-09-17T16:09:41;101492;;;16.14;41.93
62632;BME280;48703;51.248;-0.546;2022-09-17T16:12:41;101487;;;16.20;42.64
62632;BME280;48703;51.248;-0.546;2022-09-17T16:15:43;101483;;;16.21;41.05
62632;BME280;48703;51.248;-0.546;2022-09-17T16:18:45;101486;;;16.20;40.25
62632;BME280;48703;51.248;-0.546;2022-09-17T16:21:47;101485;;;16.13;39.71